createdAt,value
2022-08-22T00:00:32.139Z,20.60
2022-08-22T00:02:45.363Z,24.30
2022-08-22T00:02:55.811Z,20.70
2022-08-22T00:03:00.777Z,23.30
2022-08-22T00:03:03.863Z,23.50
2022-08-22T00:03:22.808Z,20.50
2022-08-22T00:06:18.698Z,20.40
2022-08-22T00:08:50.147Z,20.40
2022-08-22T00:11:38.370Z,20.30
2022-08-22T00:14:21.240Z,20.30
2022-08-22T00:16:50.878Z,20.20
2022-08-22T00:19:45.337Z,20.20
2022-08-22T00:22:34.030Z,20.20
2022-08-22T00:25:25.815Z,20.20
2022-08-22T00:28:17.594Z,20.20
2022-08-22T00:30:54.484Z,20.10
2022-08-22T00:33:45.268Z,20.00
2022-08-22T00:36:37.935Z,19.90
2022-08-22T00:39:07.582Z,19.70
2022-08-22T00:41:53.982Z,19.60
2022-08-22T00:44:33.049Z,19.50
2022-08-22T00:47:02.961Z,19.50
2022-08-22T00:49:59.701Z,19.60
2022-08-22T00:52:56.296Z,19.50
2022-08-22T00:56:03.996Z,19.50
2022-08-22T00:58:46.595Z,19.50
2022-08-22T01:01:17.135Z,19.40
2022-08-22T01:03:55.036Z,19.40
2022-08-22T01:06:39.743Z,19.30
2022-08-22T01:09:21.742Z,19.20
2022-08-22T01:12:05.562Z,19.20
2022-08-22T01:15:03.096Z,19.10
2022-08-22T01:18:03.809Z,19.00
2022-08-22T01:20:39.320Z,19.00
2022-08-22T01:23:40.537Z,19.00
2022-08-22T01:26:26.152Z,19.00
2022-08-22T01:29:27.669Z,18.90
2022-08-22T01:32:14.158Z,18.90
2022-08-22T01:34:59.805Z,18.70
2022-08-22T01:37:57.211Z,18.60
2022-08-22T01:40:30.142Z,18.50
2022-08-22T01:43:18.094Z,18.50
2022-08-22T01:45:53.598Z,18.50
2022-08-22T01:48:41.863Z,18.50
2022-08-22T01:51:23.518Z,18.50
2022-08-22T01:54:05.585Z,18.50
2022-08-22T01:56:36.387Z,18.50
2022-08-22T01:59:10.932Z,18.50
2022-08-22T02:01:50.167Z,18.50
2022-08-22T02:04:20.158Z,18.60
2022-08-22T02:07:17.860Z,18.50
2022-08-22T02:10:06.257Z,18.50
2022-08-22T02:12:42.077Z,18.40
2022-08-22T02:15:24.449Z,18.30
2022-08-22T02:18:06.362Z,18.20
2022-08-22T02:20:56.262Z,18.10
2022-08-22T02:23:36.085Z,18.10
2022-08-22T02:26:02.927Z,18.10
2022-08-22T02:28:58.042Z,18.20
2022-08-22T02:31:45.372Z,18.20
2022-08-22T02:34:44.153Z,18.20
2022-08-22T02:37:33.439Z,18.20
2022-08-22T02:40:19.125Z,18.20
2022-08-22T02:43:02.916Z,18.20
2022-08-22T02:45:49.232Z,18.20
2022-08-22T02:48:44.475Z,18.20
2022-08-22T02:51:24.407Z,18.10
2022-08-22T02:53:54.271Z,17.90
2022-08-22T02:56:31.592Z,17.70
2022-08-22T02:59:22.579Z,17.60
2022-08-22T03:01:51.334Z,17.60
2022-08-22T03:04:21.564Z,17.60
2022-08-22T03:07:14.821Z,17.70
2022-08-22T03:10:05.688Z,17.80
2022-08-22T03:12:44.906Z,17.80
2022-08-22T03:15:28.559Z,17.90
2022-08-22T03:18:04.111Z,17.90
2022-08-22T03:20:43.069Z,17.90
2022-08-22T03:23:34.854Z,17.90
2022-08-22T03:26:01.682Z,17.70
2022-08-22T03:29:00.217Z,17.60
2022-08-22T03:31:30.022Z,17.50
2022-08-22T03:34:25.173Z,17.40
2022-08-22T03:37:13.506Z,17.40
2022-08-22T03:39:51.438Z,17.20
2022-08-22T03:42:36.888Z,17.10
2022-08-22T03:45:34.807Z,17.10
2022-08-22T03:48:10.340Z,17.00
2022-08-22T03:51:11.971Z,16.90
2022-08-22T03:54:08.693Z,16.90
2022-08-22T03:57:00.412Z,16.90
2022-08-22T04:00:05.658Z,16.90
2022-08-22T04:02:55.182Z,16.80
2022-08-22T04:05:59.038Z,16.80
2022-08-22T04:09:03.138Z,16.70
2022-08-22T04:11:51.331Z,16.70
2022-08-22T04:14:34.219Z,16.60
2022-08-22T04:17:32.321Z,16.60
2022-08-22T04:20:05.262Z,16.60
2022-08-22T04:22:41.300Z,16.60
2022-08-22T04:25:16.158Z,16.60
2022-08-22T04:27:51.143Z,16.60
2022-08-22T04:30:47.020Z,16.50
2022-08-22T04:33:26.264Z,16.50
2022-08-22T04:36:11.678Z,16.40
2022-08-22T04:38:59.802Z,16.30
2022-08-22T04:41:41.362Z,16.30
2022-08-22T04:44:16.047Z,16.20
2022-08-22T04:46:52.086Z,16.10
2022-08-22T04:49:21.928Z,16.00
2022-08-22T04:52:04.214Z,16.10
2022-08-22T04:54:57.330Z,16.20
2022-08-22T04:57:56.043Z,16.30
2022-08-22T05:00:24.153Z,16.30
2022-08-22T05:02:57.668Z,16.20
2022-08-22T05:05:31.553Z,16.30
2022-08-22T05:08:01.148Z,16.30
2022-08-22T05:10:40.620Z,16.30
2022-08-22T05:13:25.163Z,16.30
2022-08-22T05:15:57.382Z,16.40
2022-08-22T05:18:31.789Z,16.40
2022-08-22T05:21:02.401Z,16.50
2022-08-22T05:23:49.875Z,16.60
2022-08-22T05:26:19.236Z,16.60
2022-08-22T05:28:53.215Z,16.70
2022-08-22T05:31:34.254Z,16.80
2022-08-22T05:34:09.918Z,16.90
2022-08-22T05:36:45.261Z,17.00
2022-08-22T05:39:16.262Z,17.10
2022-08-22T05:41:44.772Z,17.10
2022-08-22T05:44:28.022Z,17.20
2022-08-22T05:47:03.286Z,17.30
2022-08-22T05:49:45.140Z,17.40
2022-08-22T05:52:24.867Z,17.50
2022-08-22T05:55:10.684Z,17.60
2022-08-22T05:57:39.918Z,17.70
2022-08-22T06:00:11.871Z,17.80
2022-08-22T06:03:26.077Z,17.80
2022-08-22T06:05:56.352Z,18.00
2022-08-22T06:08:52.723Z,18.20
2022-08-22T06:11:44.852Z,18.40
2022-08-22T06:14:37.506Z,18.70
2022-08-22T06:17:41.362Z,18.90
2022-08-22T06:20:12.276Z,19.10
2022-08-22T06:22:47.861Z,19.40
2022-08-22T06:25:22.226Z,19.70
2022-08-22T06:27:49.714Z,19.90
2022-08-22T06:30:19.104Z,20.20
2022-08-22T06:33:00.217Z,20.40
2022-08-22T06:35:56.219Z,20.50
2022-08-22T06:38:33.533Z,20.50
2022-08-22T06:41:06.846Z,20.70
2022-08-22T06:43:43.707Z,20.80
2022-08-22T06:46:14.997Z,20.90
2022-08-22T06:48:42.826Z,21.20
2022-08-22T06:51:12.482Z,21.30
2022-08-22T06:54:01.781Z,21.70
2022-08-22T06:56:39.696Z,22.30
2022-08-22T06:59:15.025Z,22.50
2022-08-22T07:02:04.143Z,22.70
2022-08-22T07:04:31.427Z,23.00
2022-08-22T07:07:01.263Z,23.10
2022-08-22T07:09:35.024Z,23.10
2022-08-22T07:12:24.232Z,23.30
2022-08-22T07:14:54.716Z,23.50
2022-08-22T07:17:31.219Z,23.70
2022-08-22T07:20:23.732Z,23.90
2022-08-22T07:23:12.423Z,24.30
2022-08-22T07:26:13.499Z,24.60
2022-08-22T07:28:51.639Z,24.70
2022-08-22T07:31:54.220Z,24.80
2022-08-22T07:34:24.069Z,25.00
2022-08-22T07:37:00.416Z,25.20
2022-08-22T07:39:56.316Z,25.60
2022-08-22T07:42:49.589Z,26.20
2022-08-22T07:45:20.821Z,26.30
2022-08-22T07:48:17.229Z,26.60
2022-08-22T07:51:04.090Z,26.80
2022-08-22T07:53:36.224Z,27.00
2022-08-22T07:56:06.936Z,27.50
2022-08-22T07:58:39.495Z,28.10
2022-08-22T08:01:10.533Z,28.70
2022-08-22T08:03:38.571Z,29.10
2022-08-22T08:06:08.906Z,29.40
2022-08-22T08:08:43.614Z,29.70
2022-08-22T08:11:12.844Z,29.60
2022-08-22T08:13:43.690Z,29.60
2022-08-22T08:16:22.014Z,30.00
2022-08-22T08:18:50.415Z,30.40
2022-08-22T08:21:39.682Z,30.70
2022-08-22T08:24:11.917Z,31.00
2022-08-22T08:27:04.645Z,31.20
2022-08-22T08:29:32.678Z,31.50
2022-08-22T08:32:01.255Z,31.80
2022-08-22T08:34:32.490Z,32.40
2022-08-22T08:37:16.939Z,32.50
2022-08-22T08:39:50.731Z,32.60
2022-08-22T08:42:26.728Z,32.40
2022-08-22T08:45:09.609Z,32.20
2022-08-22T08:47:49.124Z,32.20
2022-08-22T08:50:55.186Z,32.20
2022-08-22T08:53:57.063Z,33.10
2022-08-22T08:56:35.885Z,33.50
2022-08-22T08:59:23.977Z,33.70
2022-08-22T09:01:53.609Z,34.20
2022-08-22T09:04:20.457Z,33.80
2022-08-22T09:07:05.407Z,33.60
2022-08-22T09:09:38.155Z,33.70
2022-08-22T09:12:36.529Z,33.80
2022-08-22T09:15:59.748Z,34.20
2022-08-22T09:18:35.250Z,34.60
2022-08-22T09:21:31.538Z,34.60
2022-08-22T09:24:27.717Z,34.60
2022-08-22T09:26:58.593Z,34.10
2022-08-22T09:29:54.654Z,33.40
2022-08-22T09:32:52.540Z,33.70
2022-08-22T09:35:54.866Z,34.10
2022-08-22T09:38:51.065Z,34.60
2022-08-22T09:41:36.871Z,35.50
2022-08-22T09:44:40.990Z,36.50
2022-08-22T09:47:31.397Z,36.60
2022-08-22T09:50:22.395Z,37.10
2022-08-22T09:52:53.485Z,37.80
2022-08-22T09:55:50.728Z,38.30
2022-08-22T09:58:21.369Z,39.10
2022-08-22T10:00:48.237Z,39.00
2022-08-22T10:03:51.705Z,39.10
2022-08-22T10:06:41.120Z,38.50
2022-08-22T10:09:21.665Z,39.00
2022-08-22T10:12:12.449Z,39.60
2022-08-22T10:14:50.480Z,40.40
2022-08-22T10:17:41.477Z,41.10
2022-08-22T10:20:14.068Z,41.80
2022-08-22T10:23:01.287Z,41.80
2022-08-22T10:26:23.041Z,41.50
2022-08-22T10:29:05.735Z,41.60
2022-08-22T10:31:59.174Z,42.20
2022-08-22T10:34:36.432Z,42.80
2022-08-22T10:37:31.768Z,43.00
2022-08-22T10:40:09.854Z,42.80
2022-08-22T10:42:59.461Z,43.20
2022-08-22T10:45:47.940Z,43.40
2022-08-22T10:48:53.744Z,44.20
2022-08-22T10:51:53.371Z,44.80
2022-08-22T10:54:48.811Z,45.40
2022-08-22T10:57:42.572Z,44.90
2022-08-22T11:00:28.388Z,44.00
2022-08-22T11:03:02.743Z,44.40
2022-08-22T11:05:41.295Z,41.70
2022-08-22T11:08:37.652Z,38.80
2022-08-22T11:11:32.897Z,39.80
2022-08-22T11:14:18.393Z,39.10
2022-08-22T11:17:32.294Z,38.30
2022-08-22T11:20:24.851Z,38.80
2022-08-22T11:23:28.370Z,40.50
2022-08-22T11:26:10.273Z,42.70
2022-08-22T11:28:56.911Z,42.40
2022-08-22T11:31:51.557Z,41.20
2022-08-22T11:34:44.743Z,40.50
2022-08-22T11:37:20.417Z,39.90
2022-08-22T11:40:06.613Z,38.50
2022-08-22T11:42:53.468Z,37.00
2022-08-22T11:45:25.951Z,36.50
2022-08-22T11:48:09.877Z,37.30
2022-08-22T11:50:44.939Z,38.00
2022-08-22T11:53:25.136Z,37.10
2022-08-22T11:58:56.040Z,35.10
2022-08-22T12:01:34.294Z,35.10
2022-08-22T12:04:09.887Z,35.00
2022-08-22T12:06:57.182Z,34.80
2022-08-22T12:09:31.905Z,35.20
2022-08-22T12:12:04.738Z,37.20
2022-08-22T12:14:57.929Z,38.80
2022-08-22T12:17:55.313Z,39.90
2022-08-22T12:20:58.637Z,41.30
2022-08-22T12:23:49.397Z,42.30
2022-08-22T12:26:23.194Z,41.70
2022-08-22T12:29:15.635Z,41.80
2022-08-22T12:31:58.792Z,42.80
2022-08-22T12:34:32.990Z,42.60
2022-08-22T12:37:21.543Z,42.60
2022-08-22T12:40:27.263Z,41.40
2022-08-22T12:42:54.178Z,41.60
2022-08-22T12:45:55.756Z,40.60
2022-08-22T12:48:37.509Z,40.60
2022-08-22T12:51:22.895Z,40.10
2022-08-22T12:54:06.644Z,39.60
2022-08-22T12:56:58.433Z,38.50
2022-08-22T12:59:33.844Z,35.80
2022-08-22T13:02:11.956Z,35.60
2022-08-22T13:04:48.253Z,36.20
2022-08-22T13:07:24.769Z,37.60
2022-08-22T13:10:14.624Z,38.30
2022-08-22T13:12:48.570Z,39.10
2022-08-22T13:15:53.911Z,40.50
2022-08-22T13:18:29.938Z,38.30
2022-08-22T13:21:02.270Z,39.00
2022-08-22T13:23:39.573Z,41.00
2022-08-22T13:26:33.693Z,42.00
2022-08-22T13:29:27.189Z,39.60
2022-08-22T13:32:00.463Z,38.80
2022-08-22T13:34:38.472Z,39.60
2022-08-22T13:37:11.717Z,38.90
2022-08-22T13:39:43.597Z,38.70
2022-08-22T13:42:29.943Z,38.20
2022-08-22T13:45:04.348Z,35.90
2022-08-22T13:47:39.539Z,34.70
2022-08-22T13:50:14.573Z,35.00
2022-08-22T13:52:52.313Z,35.60
2022-08-22T13:55:36.657Z,36.80
2022-08-22T13:58:12.813Z,38.20
2022-08-22T14:01:01.622Z,37.40
2022-08-22T14:04:05.588Z,36.10
2022-08-22T14:06:57.392Z,36.10
2022-08-22T14:09:42.852Z,36.10
2022-08-22T14:12:21.993Z,36.60
2022-08-22T14:15:06.459Z,37.40
2022-08-22T14:17:43.476Z,38.20
2022-08-22T14:20:32.265Z,36.40
2022-08-22T14:23:04.607Z,36.50
2022-08-22T14:25:36.745Z,36.00
2022-08-22T14:28:09.495Z,36.40
2022-08-22T14:31:00.674Z,37.20
2022-08-22T14:33:34.089Z,36.80
2022-08-22T14:36:11.385Z,35.80
2022-08-22T14:38:50.821Z,35.90
2022-08-22T14:41:17.633Z,36.90
2022-08-22T14:43:59.121Z,37.30
2022-08-22T14:46:57.874Z,38.20
2022-08-22T14:49:49.658Z,37.40
2022-08-22T14:52:30.883Z,36.60
2022-08-22T14:55:20.869Z,36.30
2022-08-22T14:58:00.271Z,36.10
2022-08-22T15:00:42.875Z,35.60
2022-08-22T15:03:20.653Z,35.00
2022-08-22T15:05:56.098Z,34.60
2022-08-22T15:08:48.069Z,34.10
2022-08-22T15:11:22.041Z,33.00
2022-08-22T15:13:52.239Z,32.70
2022-08-22T15:16:29.867Z,32.20
2022-08-22T15:18:59.240Z,32.30
2022-08-22T15:21:32.020Z,32.00
2022-08-22T15:24:06.390Z,31.80
2022-08-22T15:27:01.226Z,31.10
2022-08-22T15:29:53.256Z,30.60
2022-08-22T15:32:26.685Z,30.60
2022-08-22T15:35:03.990Z,30.80
2022-08-22T15:37:33.942Z,31.00
2022-08-22T15:40:12.062Z,31.00
2022-08-22T15:42:56.166Z,31.10
2022-08-22T15:45:37.362Z,31.00
2022-08-22T15:48:26.535Z,31.20
2022-08-22T15:50:56.190Z,31.00
2022-08-22T15:53:33.726Z,31.00
2022-08-22T15:56:07.002Z,31.00
2022-08-22T15:58:39.775Z,30.90
2022-08-22T16:01:24.541Z,30.40
2022-08-22T16:04:08.239Z,29.80
2022-08-22T16:06:49.275Z,30.00
2022-08-22T16:09:38.430Z,30.20
2022-08-22T16:12:45.885Z,30.40
2022-08-22T16:15:54.387Z,30.40
2022-08-22T16:18:42.603Z,30.30
2022-08-22T16:21:22.717Z,30.00
2022-08-22T16:23:56.578Z,29.90
2022-08-22T16:26:42.920Z,30.10
2022-08-22T16:29:18.023Z,30.10
2022-08-22T16:31:48.197Z,30.00
2022-08-22T16:34:17.876Z,30.00
2022-08-22T16:37:22.821Z,30.00
2022-08-22T16:39:58.695Z,30.00
2022-08-22T16:42:28.490Z,30.00
2022-08-22T16:45:06.988Z,30.00
2022-08-22T16:47:33.905Z,29.90
2022-08-22T16:50:04.545Z,29.60
2022-08-22T16:52:33.329Z,29.50
2022-08-22T16:55:07.233Z,29.40
2022-08-22T16:58:18.507Z,29.20
2022-08-22T17:01:03.265Z,29.10
2022-08-22T17:03:51.154Z,29.00
2022-08-22T17:06:24.047Z,29.10
2022-08-22T17:08:59.455Z,29.20
2022-08-22T17:11:47.747Z,29.30
2022-08-22T17:14:26.572Z,29.30
2022-08-22T17:17:11.857Z,29.40
2022-08-22T17:20:16.286Z,29.50
2022-08-22T17:23:18.331Z,29.60
2022-08-22T17:26:09.414Z,29.60
2022-08-22T17:28:48.532Z,29.60
2022-08-22T17:31:32.992Z,29.70
2022-08-22T17:34:40.979Z,29.70
2022-08-22T17:37:30.632Z,29.60
2022-08-22T17:40:09.359Z,29.60
2022-08-22T17:42:46.320Z,29.50
2022-08-22T17:45:31.986Z,29.30
2022-08-22T17:48:15.554Z,28.90
2022-08-22T17:50:49.116Z,28.80
2022-08-22T17:53:26.729Z,28.70
2022-08-22T17:56:21.405Z,28.70
2022-08-22T17:59:11.627Z,28.60
2022-08-22T18:01:57.074Z,28.30
2022-08-22T18:05:04.571Z,28.20
2022-08-22T18:07:44.673Z,28.00
2022-08-22T18:10:17.458Z,27.90
2022-08-22T18:12:56.542Z,27.90
2022-08-22T18:15:38.793Z,27.70
2022-08-22T18:18:13.057Z,27.70
2022-08-22T18:21:02.552Z,27.60
2022-08-22T18:24:10.281Z,27.50
2022-08-22T18:26:44.586Z,27.20
2022-08-22T18:29:45.919Z,27.00
2022-08-22T18:32:27.819Z,26.80
2022-08-22T18:35:09.131Z,26.60
2022-08-22T18:37:43.140Z,26.40
2022-08-22T18:40:36.807Z,26.20
2022-08-22T18:43:24.184Z,26.00
2022-08-22T18:45:51.108Z,25.90
2022-08-22T18:48:26.792Z,25.80
2022-08-22T18:51:38.099Z,25.70
2022-08-22T18:54:05.257Z,25.60
2022-08-22T18:56:34.160Z,25.50
2022-08-22T18:59:18.564Z,25.40
2022-08-22T19:02:08.216Z,25.30
2022-08-22T19:04:44.072Z,25.20
2022-08-22T19:07:22.748Z,25.20
2022-08-22T19:10:21.951Z,25.10
2022-08-22T19:13:17.304Z,25.00
2022-08-22T19:16:01.875Z,24.90
2022-08-22T19:18:51.220Z,24.80
2022-08-22T19:21:52.588Z,24.80
2022-08-22T19:24:29.713Z,24.70
2022-08-22T19:27:12.451Z,24.70
2022-08-22T19:29:41.613Z,24.60
2022-08-22T19:32:13.030Z,24.50
2022-08-22T19:34:47.856Z,24.50
2022-08-22T19:37:33.179Z,24.40
2022-08-22T19:40:10.940Z,24.40
2022-08-22T19:42:43.239Z,24.30
2022-08-22T19:45:29.387Z,24.30
2022-08-22T19:48:10.498Z,24.20
2022-08-22T19:50:39.210Z,24.20
2022-08-22T19:53:24.773Z,24.10
2022-08-22T19:56:27.711Z,24.10
2022-08-22T19:59:13.139Z,24.10
2022-08-22T20:01:56.019Z,24.10
2022-08-22T20:05:00.373Z,24.00
2022-08-22T20:07:48.613Z,23.90
2022-08-22T20:10:34.167Z,23.90
2022-08-22T20:13:18.101Z,23.80
2022-08-22T20:16:03.402Z,23.80
2022-08-22T20:19:01.873Z,23.70
2022-08-22T20:21:55.169Z,23.70
2022-08-22T20:24:31.181Z,23.60
2022-08-22T20:27:13.786Z,23.60
2022-08-22T20:30:05.359Z,23.50
2022-08-22T20:32:39.521Z,23.30
2022-08-22T20:35:07.368Z,23.20
2022-08-22T20:38:05.349Z,23.00
2022-08-22T20:40:59.530Z,22.90
2022-08-22T20:43:49.909Z,22.90
2022-08-22T20:46:43.540Z,22.80
2022-08-22T20:49:20.422Z,22.70
2022-08-22T20:51:59.567Z,22.60
2022-08-22T20:54:32.174Z,22.50
2022-08-22T20:57:14.080Z,22.50
2022-08-22T20:59:42.668Z,22.50
2022-08-22T21:02:15.045Z,22.30
2022-08-22T21:05:03.558Z,22.20
2022-08-22T21:07:30.415Z,22.20
2022-08-22T21:10:35.280Z,22.10
2022-08-22T21:13:06.339Z,21.90
2022-08-22T21:15:45.630Z,21.90
2022-08-22T21:18:23.448Z,21.80
2022-08-22T21:20:51.059Z,21.80
2022-08-22T21:23:19.550Z,21.80
2022-08-22T21:25:57.933Z,21.60
2022-08-22T21:28:31.223Z,21.60
2022-08-22T21:31:00.500Z,21.50
2022-08-22T21:33:27.912Z,21.50
2022-08-22T21:35:57.515Z,21.50
2022-08-22T21:38:25.277Z,21.30
2022-08-22T21:40:53.083Z,21.20
2022-08-22T21:43:37.142Z,21.10
2022-08-22T21:46:06.030Z,21.00
2022-08-22T21:48:56.611Z,21.00
2022-08-22T21:51:43.733Z,20.90
2022-08-22T21:54:21.355Z,20.80
2022-08-22T21:56:50.556Z,20.80
2022-08-22T21:59:52.188Z,20.80
2022-08-22T22:02:38.282Z,20.80
2022-08-22T22:05:16.277Z,20.60
2022-08-22T22:07:47.412Z,20.60
2022-08-22T22:10:19.080Z,20.50
2022-08-22T22:12:47.783Z,20.50
2022-08-22T22:15:18.873Z,20.60
2022-08-22T22:17:45.854Z,20.60
2022-08-22T22:20:15.348Z,20.50
2022-08-22T22:22:46.411Z,20.50
2022-08-22T22:25:38.745Z,20.40
2022-08-22T22:28:12.827Z,20.30
2022-08-22T22:30:40.177Z,20.20
2022-08-22T22:33:07.294Z,20.10
2022-08-22T22:35:34.635Z,20.20
2022-08-22T22:38:02.083Z,20.20
2022-08-22T22:40:29.353Z,20.20
2022-08-22T22:42:56.300Z,20.20
2022-08-22T22:45:23.159Z,20.20
2022-08-22T22:47:50.311Z,20.10
2022-08-22T22:50:17.303Z,19.90
2022-08-22T22:52:44.237Z,19.80
2022-08-22T22:55:11.420Z,19.90
2022-08-22T22:57:51.482Z,20.00
2022-08-22T23:00:29.133Z,19.90
2022-08-22T23:02:59.405Z,19.90
2022-08-22T23:05:26.284Z,20.00
2022-08-22T23:07:53.126Z,20.00
2022-08-22T23:10:22.116Z,20.00
2022-08-22T23:12:49.271Z,20.00
2022-08-22T23:15:16.765Z,20.00
2022-08-22T23:17:43.896Z,20.00
2022-08-22T23:20:11.056Z,20.00
2022-08-22T23:22:38.068Z,20.10
2022-08-22T23:25:05.367Z,20.10
2022-08-22T23:27:32.380Z,20.00
2022-08-22T23:29:59.376Z,19.80
2022-08-22T23:32:26.267Z,19.70
2022-08-22T23:34:54.196Z,19.70
2022-08-22T23:37:22.891Z,19.70
2022-08-22T23:39:50.133Z,19.70
2022-08-22T23:42:18.238Z,19.60
2022-08-22T23:44:46.148Z,19.60
2022-08-22T23:47:14.490Z,19.60
2022-08-22T23:49:42.428Z,19.40
2022-08-22T23:52:12.502Z,19.40
2022-08-22T23:54:40.595Z,19.40
2022-08-22T23:57:11.997Z,19.30
2022-08-22T23:59:46.468Z,19.20
